Lampasas, TX (76550)

8:40 AM CDT on September 03, 2015 (GMT -0500)
Personal Weather Station | | Change Station
CLOSE
Current Station
Personal Weather Station
Location: Lampasas, TX
Elevation: 1017 ft
Nearby Weather Stations

Elev 1017 ft 31.08 °N, 98.05 °W | Updated 5 minutes ago

Partly Cloudy
Partly Cloudy
73.9 °F
Feels Like 73 °F
N
5.0
Wind Variable Wind from SE
Gusts 8.0 mph

Today
High -- | Low -- °F
--% Chance of Precip.
Yesterday
High -- | Low -- °F
Precip. -- in
7:09 AM 7:53 PM
Waning Gibbous, 70% visible
Pressure 29.98 in
Visibility 9.0 miles
Clouds Scattered Clouds 1000 ft
Heat Index 73 °F
Dew Point 70 °F
Humidity 87%
Rainfall 0.00 in
Snow Depth Not available.
UV 1 out of 12
Pollen 7.20 out of 12
Air Quality Not available.
Flu Activity Not available.
SPECI KGRK 031313Z AUTO 16003KT 9SM SCT010 22/20 A2998 RMK AO2
Pressure 29.98 in
Visibility 9.0 miles
Clouds Scattered Clouds 1000 ft
Heat Index 73 °F
Dew Point 70 °F
Humidity 87%
Rainfall 0.00 in
Snow Depth Not available.
UV 1 out of 12
Pollen 7.20 out of 12
Air Quality Not available.
Flu Activity Not available.
SPECI KGRK 031313Z AUTO 16003KT 9SM SCT010 22/20 A2998 RMK AO2

10-Day Weather Forecast

×

Almanac

Astronomy

Sep. 03, 2015 Rise Set
Actual Time
Civil Twilight
Nautical Twilight
Astronomical Twilight
Moon
Length of Visible Light
Length of Day
Tomorrow will be .
, % of the Moon is Illuminated

Today's Extremes

State Highs State Lows

Community

WunderPhotos

Upload Photos

1,851,952 photos uploaded!

WunderBlogs® & News

Nearby

Air Quality

  Air Quality AQ Index Pollutant
Not available.

Snow Depth

Station Depth Elevation

Earthquake Activity

City Distance Mag. Time & Date
Minimum magnitude displayed is 2.5.

Coastal Water Temperatures

Place Temperature

Stations

Nearby Weather Stations

Station Location Temp. Windchill Dew Point Humidity Wind Precip. Elev Updated Type